LFKB/BIA METAR and TAF weather

Enter ICAO airport designator
Station Type Date Time Source
LFKB METAR 2018/12/12 13:00 UTC NOAA

LFKB 121300Z AUTO 09006KT 070V130 9999 BKN026/// BKN032/// BKN047/// 12/07 Q1016 NOSIG


Station Type Date Time Source
LFKB Decoded METAR 2018/12/12 13:00 UTC NOAA

Bastia, France (LFKB) 42-33N 009-29E 12M
Dec 12, 2018 - 08:00 AM EST / 2018.12.12 1300 UTC
Wind: from the E (090 degrees) at 7 MPH (6 KT) (direction variable):0
Visibility: greater than 7 mile(s):0
Sky conditions: mostly cloudy
Temperature: 53 F (12 C)
Dew Point: 44 F (7 C)
Relative Humidity: 71%
Pressure (altimeter): 30.00 in. Hg (1016 hPa)
ob: LFKB 121300Z AUTO 09006KT 070V130 9999 BKN026/// BKN032/// BKN047/// 12/07 Q1016 NOSIG
cycle: 13

Station Type Date Time Source
LFKB TAF 2018/12/12 09:25 UTC NOAA

TAF LFKB 120800Z 1209/1309 22005KT 9999 FEW030 TX14/1213Z TN07/1303Z
TEMPO 1212/1215 15010KT
TEMPO 1218/1303 BKN020


Example: see airport list